Impacts TAF Board INFO
FOR SITUATIONAL AWARENESS. NOT TO BE USED FOR FLIGHT PLANNING PURPOSES.
IDs:

KSFO - San Francisco Intl, CA, US

Issued at 1547 UTC 29 May 2017
Updated at 1659 UTC 29 May 2017
Potential Impact None Slight Moderate High
Time1656Z 29/17Z 29/18Z 29/19Z 29/20Z 29/21Z 29/22Z 29/23Z 30/00Z 30/01Z 30/02Z 30/03Z 30/04Z 30/05Z>>
Type OBS PRVL PRVL PRVL PRVL PRVL PRVL PRVL PRVL PRVL PRVL PRVL PRVL PRVL
VIS 9 >6 >6 >6 >6 >6 >6 >6 >6 >6 >6 >6 >6 >6
CIG 8 6 6 7 7 -- -- -- -- -- -- 12 12 12
Cover OVC OVC OVC OVC OVC SCT SCT SCT SCT SCT SCT BKN BKN BKN
FltCat IFR IFR IFR IFR IFR VFR VFR VFR VFR VFR VFR MVFR MVFR MVFR
WX -- -- -- -- -- -- -- -- -- -- -- -- -- --
WDir 250 270 270 270 270 270 280 280 280 280 280 270 270 270
WSpd 12 14 14 16 16 20 22 22 22 22 22 17 17 17
WGst -- -- -- 23 23 25 27 27 27 27 27 -- -- --

Raw TAF
KSFO 291547Z 2916/3018 27014KT P6SM OVC006
  FM291900 27016G23KT P6SM OVC007
  FM292030 27020G25KT P6SM FEW006 SCT010
  FM292200 28022G27KT P6SM SCT015
  FM300300 27017KT P6SM BKN012
  FM300600 27014KT P6SM OVC012


Raw METAR
KSFO 291656Z 25012KT 9SM FEW006 OVC008 12/09 A3002 RMK AO2 SLP167 T01220094
KSFO 291556Z 27014G22KT 8SM FEW004 OVC007 12/09 A3002 RMK AO2 SLP165 T01170094
KSFO 291456Z 28013KT 3SM FEW004 OVC006 12/09 A3002 RMK AO2 SFC VIS 8 SLP164 T01170094 53003
KSFO 291448Z 27016KT 3SM OVC006 12/09 A3002 RMK AO2 SFC VIS 8 T01170094
KSFO 291356Z 25011KT 8SM BKN006 OVC010 12/10 A3001 RMK AO2 SLP163 T01170100

METAR Board
Radar Display
Forecast Discussion

FOR SITUATIONAL AWARENESS. NOT TO BE USED FOR FLIGHT PLANNING PURPOSES.

Page loaded:  16:59 UTC  |   09:59 AM Pacific  |   10:59 AM Mountain  |   11:59 AM Central  |   12:59 PM Eastern

 

ADVISORIES

FORECASTS

FORECASTS

OBSERVATIONS

USER TOOLS

ABOUT US